sensor_id;sensor_type;location;lat;lon;timestamp;P1;durP1;ratioP1;P2;durP2;ratioP2
44476;SDS011;30180;44.788;10.366;2023-12-20T00:01:52;7.95;;;3.13;;
44476;SDS011;30180;44.788;10.366;2023-12-20T00:04:20;9.48;;;3.40;;
44476;SDS011;30180;44.788;10.366;2023-12-20T00:06:50;6.75;;;3.17;;
44476;SDS011;30180;44.788;10.366;2023-12-20T00:09:19;6.97;;;3.47;;
44476;SDS011;30180;44.788;10.366;2023-12-20T00:11:48;9.15;;;3.08;;
44476;SDS011;30180;44.788;10.366;2023-12-20T00:14:16;8.27;;;3.13;;
44476;SDS011;30180;44.788;10.366;2023-12-20T00:16:45;6.95;;;3.10;;
44476;SDS011;30180;44.788;10.366;2023-12-20T00:19:13;7.35;;;2.78;;
44476;SDS011;30180;44.788;10.366;2023-12-20T00:21:42;8.23;;;3.10;;
44476;SDS011;30180;44.788;10.366;2023-12-20T00:24:12;8.35;;;3.00;;
44476;SDS011;30180;44.788;10.366;2023-12-20T00:26:41;7.03;;;3.00;;
44476;SDS011;30180;44.788;10.366;2023-12-20T00:29:10;6.75;;;3.05;;
44476;SDS011;30180;44.788;10.366;2023-12-20T00:31:38;8.48;;;2.80;;
44476;SDS011;30180;44.788;10.366;2023-12-20T00:34:07;10.95;;;3.83;;
44476;SDS011;30180;44.788;10.366;2023-12-20T00:36:36;9.38;;;3.80;;
44476;SDS011;30180;44.788;10.366;2023-12-20T00:39:05;8.18;;;3.03;;
44476;SDS011;30180;44.788;10.366;2023-12-20T00:41:35;6.13;;;2.83;;
44476;SDS011;30180;44.788;10.366;2023-12-20T00:44:04;7.87;;;3.07;;
44476;SDS011;30180;44.788;10.366;2023-12-20T00:46:33;7.25;;;2.80;;
44476;SDS011;30180;44.788;10.366;2023-12-20T00:49:01;6.95;;;3.22;;
44476;SDS011;30180;44.788;10.366;2023-12-20T00:51:30;8.73;;;2.72;;
44476;SDS011;30180;44.788;10.366;2023-12-20T00:53:59;10.70;;;3.30;;
44476;SDS011;30180;44.788;10.366;2023-12-20T00:56:27;6.30;;;2.92;;
44476;SDS011;30180;44.788;10.366;2023-12-20T00:58:57;5.93;;;2.97;;
44476;SDS011;30180;44.788;10.366;2023-12-20T01:01:26;7.82;;;3.15;;
44476;SDS011;30180;44.788;10.366;2023-12-20T01:03:55;5.50;;;2.85;;
44476;SDS011;30180;44.788;10.366;2023-12-20T01:06:23;5.95;;;2.63;;
44476;SDS011;30180;44.788;10.366;2023-12-20T01:08:52;6.38;;;2.97;;
44476;SDS011;30180;44.788;10.366;2023-12-20T01:11:20;7.30;;;2.58;;
44476;SDS011;30180;44.788;10.366;2023-12-20T01:13:49;4.93;;;2.60;;
44476;SDS011;30180;44.788;10.366;2023-12-20T01:16:19;6.38;;;2.88;;
44476;SDS011;30180;44.788;10.366;2023-12-20T01:18:48;6.47;;;2.97;;
44476;SDS011;30180;44.788;10.366;2023-12-20T01:21:17;6.25;;;2.70;;
44476;SDS011;30180;44.788;10.366;2023-12-20T01:23:46;6.32;;;2.70;;
44476;SDS011;30180;44.788;10.366;2023-12-20T01:26:14;5.93;;;2.72;;
44476;SDS011;30180;44.788;10.366;2023-12-20T01:28:43;5.30;;;2.47;;
44476;SDS011;30180;44.788;10.366;2023-12-20T01:31:12;5.65;;;2.65;;
44476;SDS011;30180;44.788;10.366;2023-12-20T01:33:42;6.28;;;2.50;;
44476;SDS011;30180;44.788;10.366;2023-12-20T01:36:10;7.32;;;2.42;;
44476;SDS011;30180;44.788;10.366;2023-12-20T01:38:39;6.88;;;2.60;;
44476;SDS011;30180;44.788;10.366;2023-12-20T01:41:08;5.05;;;2.70;;
44476;SDS011;30180;44.788;10.366;2023-12-20T01:43:36;5.93;;;2.45;;
44476;SDS011;30180;44.788;10.366;2023-12-20T01:46:16;5.45;;;2.40;;
44476;SDS011;30180;44.788;10.366;2023-12-20T01:48:47;5.30;;;2.97;;
44476;SDS011;30180;44.788;10.366;2023-12-20T01:51:16;9.00;;;2.50;;
44476;SDS011;30180;44.788;10.366;2023-12-20T01:53:45;5.60;;;2.78;;
44476;SDS011;30180;44.788;10.366;2023-12-20T01:56:15;5.05;;;2.65;;
44476;SDS011;30180;44.788;10.366;2023-12-20T01:58:44;5.35;;;2.50;;
44476;SDS011;30180;44.788;10.366;2023-12-20T02:01:15;5.25;;;2.65;;
44476;SDS011;30180;44.788;10.366;2023-12-20T02:03:45;5.35;;;2.42;;
44476;SDS011;30180;44.788;10.366;2023-12-20T02:06:15;5.50;;;2.53;;
44476;SDS011;30180;44.788;10.366;2023-12-20T02:08:45;7.40;;;2.50;;
44476;SDS011;30180;44.788;10.366;2023-12-20T02:11:14;6.97;;;2.70;;
44476;SDS011;30180;44.788;10.366;2023-12-20T02:13:43;5.85;;;2.65;;
44476;SDS011;30180;44.788;10.366;2023-12-20T02:16:11;5.20;;;2.47;;
44476;SDS011;30180;44.788;10.366;2023-12-20T02:18:40;7.05;;;2.97;;
44476;SDS011;30180;44.788;10.366;2023-12-20T02:21:11;6.95;;;2.65;;
44476;SDS011;30180;44.788;10.366;2023-12-20T02:23:41;6.38;;;2.47;;
44476;SDS011;30180;44.788;10.366;2023-12-20T02:26:08;5.15;;;2.00;;
44476;SDS011;30180;44.788;10.366;2023-12-20T02:28:37;6.55;;;2.20;;
44476;SDS011;30180;44.788;10.366;2023-12-20T02:31:05;3.83;;;2.05;;
44476;SDS011;30180;44.788;10.366;2023-12-20T02:33:34;4.50;;;2.22;;
44476;SDS011;30180;44.788;10.366;2023-12-20T02:36:03;7.03;;;2.55;;
44476;SDS011;30180;44.788;10.366;2023-12-20T02:38:34;5.30;;;2.38;;
44476;SDS011;30180;44.788;10.366;2023-12-20T02:41:04;5.68;;;2.20;;
44476;SDS011;30180;44.788;10.366;2023-12-20T02:43:33;4.88;;;2.20;;
44476;SDS011;30180;44.788;10.366;2023-12-20T02:46:01;5.57;;;1.95;;
44476;SDS011;30180;44.788;10.366;2023-12-20T02:48:30;3.63;;;1.98;;
44476;SDS011;30180;44.788;10.366;2023-12-20T02:50:59;7.95;;;2.45;;
44476;SDS011;30180;44.788;10.366;2023-12-20T02:53:28;4.95;;;2.30;;
44476;SDS011;30180;44.788;10.366;2023-12-20T02:55:56;4.18;;;2.10;;
44476;SDS011;30180;44.788;10.366;2023-12-20T02:58:26;5.85;;;2.20;;
44476;SDS011;30180;44.788;10.366;2023-12-20T03:00:55;6.20;;;2.20;;
44476;SDS011;30180;44.788;10.366;2023-12-20T03:03:24;5.28;;;2.05;;
44476;SDS011;30180;44.788;10.366;2023-12-20T03:05:52;6.20;;;2.38;;
44476;SDS011;30180;44.788;10.366;2023-12-20T03:08:21;5.18;;;2.30;;
44476;SDS011;30180;44.788;10.366;2023-12-20T03:10:50;4.70;;;2.10;;
44476;SDS011;30180;44.788;10.366;2023-12-20T03:13:19;5.70;;;2.30;;
44476;SDS011;30180;44.788;10.366;2023-12-20T03:15:49;5.82;;;2.25;;
44476;SDS011;30180;44.788;10.366;2023-12-20T03:18:18;5.17;;;2.30;;
44476;SDS011;30180;44.788;10.366;2023-12-20T03:20:46;4.60;;;2.00;;
44476;SDS011;30180;44.788;10.366;2023-12-20T03:23:17;5.30;;;2.35;;
44476;SDS011;30180;44.788;10.366;2023-12-20T03:25:45;6.85;;;2.10;;
44476;SDS011;30180;44.788;10.366;2023-12-20T03:28:14;4.28;;;2.00;;
44476;SDS011;30180;44.788;10.366;2023-12-20T03:30:43;5.07;;;1.90;;
44476;SDS011;30180;44.788;10.366;2023-12-20T03:33:13;5.78;;;2.40;;
44476;SDS011;30180;44.788;10.366;2023-12-20T03:35:41;3.72;;;2.00;;
44476;SDS011;30180;44.788;10.366;2023-12-20T03:38:10;4.95;;;2.10;;
44476;SDS011;30180;44.788;10.366;2023-12-20T03:40:39;4.30;;;1.90;;
44476;SDS011;30180;44.788;10.366;2023-12-20T03:43:08;5.95;;;2.33;;
44476;SDS011;30180;44.788;10.366;2023-12-20T03:45:36;3.92;;;2.00;;
44476;SDS011;30180;44.788;10.366;2023-12-20T03:48:05;3.97;;;1.92;;
44476;SDS011;30180;44.788;10.366;2023-12-20T03:50:35;5.43;;;1.90;;
44476;SDS011;30180;44.788;10.366;2023-12-20T03:53:04;3.25;;;1.88;;
44476;SDS011;30180;44.788;10.366;2023-12-20T03:55:33;4.30;;;1.77;;
44476;SDS011;30180;44.788;10.366;2023-12-20T03:58:01;4.63;;;2.22;;
44476;SDS011;30180;44.788;10.366;2023-12-20T04:00:30;4.93;;;1.90;;
44476;SDS011;30180;44.788;10.366;2023-12-20T04:02:59;6.43;;;2.17;;
44476;SDS011;30180;44.788;10.366;2023-12-20T04:05:28;4.18;;;2.08;;
44476;SDS011;30180;44.788;10.366;2023-12-20T04:07:59;3.97;;;1.92;;
44476;SDS011;30180;44.788;10.366;2023-12-20T04:10:29;4.38;;;2.10;;
44476;SDS011;30180;44.788;10.366;2023-12-20T04:12:58;5.22;;;2.28;;
44476;SDS011;30180;44.788;10.366;2023-12-20T04:15:26;4.75;;;1.95;;
44476;SDS011;30180;44.788;10.366;2023-12-20T04:17:54;4.53;;;1.90;;
44476;SDS011;30180;44.788;10.366;2023-12-20T04:20:23;3.83;;;1.75;;
44476;SDS011;30180;44.788;10.366;2023-12-20T04:22:51;4.50;;;1.88;;
44476;SDS011;30180;44.788;10.366;2023-12-20T04:25:22;5.68;;;2.00;;
44476;SDS011;30180;44.788;10.366;2023-12-20T04:27:50;4.45;;;2.00;;
44476;SDS011;30180;44.788;10.366;2023-12-20T04:30:19;4.20;;;1.88;;
44476;SDS011;30180;44.788;10.366;2023-12-20T04:32:48;4.88;;;2.17;;
44476;SDS011;30180;44.788;10.366;2023-12-20T04:35:16;4.20;;;1.77;;
44476;SDS011;30180;44.788;10.366;2023-12-20T04:37:43;4.57;;;2.08;;
44476;SDS011;30180;44.788;10.366;2023-12-20T04:40:13;3.10;;;1.60;;
44476;SDS011;30180;44.788;10.366;2023-12-20T04:42:43;3.47;;;1.95;;
44476;SDS011;30180;44.788;10.366;2023-12-20T04:45:11;3.97;;;2.00;;
44476;SDS011;30180;44.788;10.366;2023-12-20T04:47:42;4.32;;;1.75;;
44476;SDS011;30180;44.788;10.366;2023-12-20T04:50:11;4.47;;;1.88;;
44476;SDS011;30180;44.788;10.366;2023-12-20T04:52:41;4.30;;;2.10;;
44476;SDS011;30180;44.788;10.366;2023-12-20T04:55:10;2.85;;;1.75;;
44476;SDS011;30180;44.788;10.366;2023-12-20T04:57:39;3.60;;;1.70;;
44476;SDS011;30180;44.788;10.366;2023-12-20T05:00:10;2.70;;;1.60;;
44476;SDS011;30180;44.788;10.366;2023-12-20T05:02:41;3.30;;;1.60;;
44476;SDS011;30180;44.788;10.366;2023-12-20T05:05:10;4.03;;;2.05;;
44476;SDS011;30180;44.788;10.366;2023-12-20T05:10:10;5.18;;;2.38;;
44476;SDS011;30180;44.788;10.366;2023-12-20T05:12:39;4.53;;;1.92;;
44476;SDS011;30180;44.788;10.366;2023-12-20T05:15:07;4.18;;;1.75;;
44476;SDS011;30180;44.788;10.366;2023-12-20T05:17:38;3.05;;;1.50;;
44476;SDS011;30180;44.788;10.366;2023-12-20T05:20:07;4.75;;;1.85;;
44476;SDS011;30180;44.788;10.366;2023-12-20T05:22:37;6.82;;;1.75;;
44476;SDS011;30180;44.788;10.366;2023-12-20T05:25:06;5.50;;;1.70;;
44476;SDS011;30180;44.788;10.366;2023-12-20T05:27:35;3.85;;;1.98;;
44476;SDS011;30180;44.788;10.366;2023-12-20T05:30:04;3.85;;;1.90;;
44476;SDS011;30180;44.788;10.366;2023-12-20T05:32:35;3.60;;;1.65;;
44476;SDS011;30180;44.788;10.366;2023-12-20T05:35:04;4.87;;;1.97;;
44476;SDS011;30180;44.788;10.366;2023-12-20T05:37:34;4.65;;;1.73;;
44476;SDS011;30180;44.788;10.366;2023-12-20T05:40:03;5.88;;;2.00;;
44476;SDS011;30180;44.788;10.366;2023-12-20T05:42:33;3.57;;;1.60;;
44476;SDS011;30180;44.788;10.366;2023-12-20T05:45:02;4.00;;;1.70;;
44476;SDS011;30180;44.788;10.366;2023-12-20T05:47:31;4.57;;;1.65;;
44476;SDS011;30180;44.788;10.366;2023-12-20T05:50:01;3.67;;;1.67;;
44476;SDS011;30180;44.788;10.366;2023-12-20T05:52:30;5.30;;;1.70;;
44476;SDS011;30180;44.788;10.366;2023-12-20T05:54:59;6.90;;;1.80;;
44476;SDS011;30180;44.788;10.366;2023-12-20T05:57:28;4.07;;;1.85;;
44476;SDS011;30180;44.788;10.366;2023-12-20T05:59:57;6.90;;;1.90;;
44476;SDS011;30180;44.788;10.366;2023-12-20T06:02:26;3.65;;;1.60;;
44476;SDS011;30180;44.788;10.366;2023-12-20T06:04:55;3.30;;;1.52;;
44476;SDS011;30180;44.788;10.366;2023-12-20T06:07:26;4.30;;;2.00;;
44476;SDS011;30180;44.788;10.366;2023-12-20T06:09:55;2.97;;;1.58;;
44476;SDS011;30180;44.788;10.366;2023-12-20T06:12:23;4.75;;;1.70;;
44476;SDS011;30180;44.788;10.366;2023-12-20T06:14:55;4.18;;;1.55;;
44476;SDS011;30180;44.788;10.366;2023-12-20T06:17:24;5.18;;;1.58;;
44476;SDS011;30180;44.788;10.366;2023-12-20T06:19:52;2.97;;;1.70;;
44476;SDS011;30180;44.788;10.366;2023-12-20T06:22:21;2.90;;;1.67;;
44476;SDS011;30180;44.788;10.366;2023-12-20T06:24:51;4.50;;;1.50;;
44476;SDS011;30180;44.788;10.366;2023-12-20T06:27:20;3.38;;;1.23;;
44476;SDS011;30180;44.788;10.366;2023-12-20T06:29:49;2.78;;;1.45;;
44476;SDS011;30180;44.788;10.366;2023-12-20T06:32:18;4.88;;;1.95;;
44476;SDS011;30180;44.788;10.366;2023-12-20T06:34:46;3.17;;;1.58;;
44476;SDS011;30180;44.788;10.366;2023-12-20T06:37:15;3.75;;;1.65;;
44476;SDS011;30180;44.788;10.366;2023-12-20T06:39:44;4.32;;;1.38;;
44476;SDS011;30180;44.788;10.366;2023-12-20T06:42:14;3.40;;;1.70;;
44476;SDS011;30180;44.788;10.366;2023-12-20T06:44:43;10.45;;;1.73;;
44476;SDS011;30180;44.788;10.366;2023-12-20T06:47:12;10.93;;;1.65;;
44476;SDS011;30180;44.788;10.366;2023-12-20T06:49:41;10.23;;;1.92;;
44476;SDS011;30180;44.788;10.366;2023-12-20T06:52:10;5.93;;;1.90;;
44476;SDS011;30180;44.788;10.366;2023-12-20T06:54:39;6.47;;;2.13;;
44476;SDS011;30180;44.788;10.366;2023-12-20T06:57:08;12.82;;;1.70;;
44476;SDS011;30180;44.788;10.366;2023-12-20T06:59:39;10.63;;;2.83;;
44476;SDS011;30180;44.788;10.366;2023-12-20T07:02:08;16.33;;;2.30;;
44476;SDS011;30180;44.788;10.366;2023-12-20T07:04:40;12.07;;;2.05;;
44476;SDS011;30180;44.788;10.366;2023-12-20T07:07:10;8.73;;;2.00;;
44476;SDS011;30180;44.788;10.366;2023-12-20T07:09:38;10.98;;;1.80;;
44476;SDS011;30180;44.788;10.366;2023-12-20T07:12:09;6.97;;;2.17;;
44476;SDS011;30180;44.788;10.366;2023-12-20T07:14:39;12.63;;;2.38;;
44476;SDS011;30180;44.788;10.366;2023-12-20T07:17:08;7.13;;;2.30;;
44476;SDS011;30180;44.788;10.366;2023-12-20T07:19:38;4.97;;;2.03;;
44476;SDS011;30180;44.788;10.366;2023-12-20T07:22:06;8.90;;;2.00;;
44476;SDS011;30180;44.788;10.366;2023-12-20T07:24:36;8.43;;;1.90;;
44476;SDS011;30180;44.788;10.366;2023-12-20T07:27:04;4.80;;;2.03;;
44476;SDS011;30180;44.788;10.366;2023-12-20T07:29:34;7.15;;;1.90;;
44476;SDS011;30180;44.788;10.366;2023-12-20T07:32:04;5.25;;;1.65;;
44476;SDS011;30180;44.788;10.366;2023-12-20T07:37:03;5.90;;;2.03;;
44476;SDS011;30180;44.788;10.366;2023-12-20T07:39:32;3.50;;;1.85;;
44476;SDS011;30180;44.788;10.366;2023-12-20T07:42:01;3.88;;;2.10;;
44476;SDS011;30180;44.788;10.366;2023-12-20T07:44:30;4.30;;;1.85;;
44476;SDS011;30180;44.788;10.366;2023-12-20T07:46:59;4.38;;;1.80;;
44476;SDS011;30180;44.788;10.366;2023-12-20T07:49:31;8.57;;;1.85;;
44476;SDS011;30180;44.788;10.366;2023-12-20T07:52:00;6.07;;;2.17;;
44476;SDS011;30180;44.788;10.366;2023-12-20T07:54:29;7.53;;;2.00;;
44476;SDS011;30180;44.788;10.366;2023-12-20T07:56:57;6.07;;;1.88;;
44476;SDS011;30180;44.788;10.366;2023-12-20T07:59:26;4.85;;;1.95;;
44476;SDS011;30180;44.788;10.366;2023-12-20T08:01:58;4.97;;;2.03;;
44476;SDS011;30180;44.788;10.366;2023-12-20T08:04:27;4.72;;;2.08;;
44476;SDS011;30180;44.788;10.366;2023-12-20T08:06:58;6.07;;;2.00;;
44476;SDS011;30180;44.788;10.366;2023-12-20T08:09:26;5.37;;;2.03;;
44476;SDS011;30180;44.788;10.366;2023-12-20T08:11:55;7.65;;;2.33;;
44476;SDS011;30180;44.788;10.366;2023-12-20T08:14:26;5.50;;;2.10;;
44476;SDS011;30180;44.788;10.366;2023-12-20T08:16:55;5.63;;;2.33;;
44476;SDS011;30180;44.788;10.366;2023-12-20T08:19:23;8.40;;;2.15;;
44476;SDS011;30180;44.788;10.366;2023-12-20T08:21:53;6.80;;;2.10;;
44476;SDS011;30180;44.788;10.366;2023-12-20T08:24:23;8.35;;;2.55;;
44476;SDS011;30180;44.788;10.366;2023-12-20T08:26:52;6.60;;;2.23;;
44476;SDS011;30180;44.788;10.366;2023-12-20T08:29:21;6.25;;;2.40;;
44476;SDS011;30180;44.788;10.366;2023-12-20T08:31:51;5.38;;;2.42;;
44476;SDS011;30180;44.788;10.366;2023-12-20T08:34:21;5.72;;;2.35;;
44476;SDS011;30180;44.788;10.366;2023-12-20T08:36:51;5.70;;;2.35;;
44476;SDS011;30180;44.788;10.366;2023-12-20T08:39:19;5.25;;;2.30;;
44476;SDS011;30180;44.788;10.366;2023-12-20T08:41:50;5.32;;;2.50;;
44476;SDS011;30180;44.788;10.366;2023-12-20T08:44:19;5.93;;;2.20;;
44476;SDS011;30180;44.788;10.366;2023-12-20T08:46:49;5.13;;;2.00;;
44476;SDS011;30180;44.788;10.366;2023-12-20T08:49:17;8.20;;;2.30;;
44476;SDS011;30180;44.788;10.366;2023-12-20T08:51:46;6.28;;;2.30;;
44476;SDS011;30180;44.788;10.366;2023-12-20T08:54:15;8.63;;;2.42;;
44476;SDS011;30180;44.788;10.366;2023-12-20T08:56:45;13.63;;;2.90;;
44476;SDS011;30180;44.788;10.366;2023-12-20T08:59:16;8.07;;;2.40;;
44476;SDS011;30180;44.788;10.366;2023-12-20T09:04:15;11.82;;;2.83;;
44476;SDS011;30180;44.788;10.366;2023-12-20T09:06:44;6.95;;;2.45;;
44476;SDS011;30180;44.788;10.366;2023-12-20T09:09:13;10.85;;;2.42;;
44476;SDS011;30180;44.788;10.366;2023-12-20T09:11:42;8.15;;;2.50;;
44476;SDS011;30180;44.788;10.366;2023-12-20T09:14:12;7.78;;;2.33;;
44476;SDS011;30180;44.788;10.366;2023-12-20T09:16:43;7.03;;;2.47;;
44476;SDS011;30180;44.788;10.366;2023-12-20T09:19:11;7.63;;;2.10;;
44476;SDS011;30180;44.788;10.366;2023-12-20T09:21:40;7.35;;;2.40;;
44476;SDS011;30180;44.788;10.366;2023-12-20T09:24:09;5.32;;;2.17;;
44476;SDS011;30180;44.788;10.366;2023-12-20T09:26:38;4.93;;;2.25;;
44476;SDS011;30180;44.788;10.366;2023-12-20T09:29:07;5.00;;;2.20;;
44476;SDS011;30180;44.788;10.366;2023-12-20T09:31:37;8.52;;;2.30;;
44476;SDS011;30180;44.788;10.366;2023-12-20T09:34:08;5.90;;;2.08;;
44476;SDS011;30180;44.788;10.366;2023-12-20T09:36:37;12.70;;;2.47;;
44476;SDS011;30180;44.788;10.366;2023-12-20T09:39:12;7.70;;;2.40;;
44476;SDS011;30180;44.788;10.366;2023-12-20T09:41:43;5.30;;;1.70;;
44476;SDS011;30180;44.788;10.366;2023-12-20T09:44:14;4.80;;;2.25;;
44476;SDS011;30180;44.788;10.366;2023-12-20T09:46:45;6.53;;;2.03;;
44476;SDS011;30180;44.788;10.366;2023-12-20T09:49:19;5.95;;;1.95;;
44476;SDS011;30180;44.788;10.366;2023-12-20T09:51:48;6.55;;;2.45;;
44476;SDS011;30180;44.788;10.366;2023-12-20T09:54:19;6.68;;;2.00;;
44476;SDS011;30180;44.788;10.366;2023-12-20T09:56:49;5.43;;;1.90;;
44476;SDS011;30180;44.788;10.366;2023-12-20T09:59:18;5.35;;;2.20;;
44476;SDS011;30180;44.788;10.366;2023-12-20T10:01:47;4.38;;;2.10;;
44476;SDS011;30180;44.788;10.366;2023-12-20T10:04:23;4.80;;;2.08;;
44476;SDS011;30180;44.788;10.366;2023-12-20T10:06:56;8.18;;;2.30;;
44476;SDS011;30180;44.788;10.366;2023-12-20T10:09:25;7.70;;;2.20;;
44476;SDS011;30180;44.788;10.366;2023-12-20T10:11:55;5.80;;;2.00;;
44476;SDS011;30180;44.788;10.366;2023-12-20T10:14:24;9.23;;;2.30;;
44476;SDS011;30180;44.788;10.366;2023-12-20T10:16:53;4.82;;;2.20;;
44476;SDS011;30180;44.788;10.366;2023-12-20T10:19:30;4.10;;;1.95;;
44476;SDS011;30180;44.788;10.366;2023-12-20T10:22:00;5.13;;;2.25;;
44476;SDS011;30180;44.788;10.366;2023-12-20T10:24:32;5.32;;;2.00;;
44476;SDS011;30180;44.788;10.366;2023-12-20T10:27:01;3.92;;;2.05;;
44476;SDS011;30180;44.788;10.366;2023-12-20T10:32:21;9.38;;;2.15;;
44476;SDS011;30180;44.788;10.366;2023-12-20T10:34:53;7.07;;;2.45;;
44476;SDS011;30180;44.788;10.366;2023-12-20T10:37:23;6.22;;;2.13;;
44476;SDS011;30180;44.788;10.366;2023-12-20T10:39:52;4.30;;;2.00;;
44476;SDS011;30180;44.788;10.366;2023-12-20T10:42:24;4.28;;;2.03;;
44476;SDS011;30180;44.788;10.366;2023-12-20T10:44:55;4.40;;;2.25;;
44476;SDS011;30180;44.788;10.366;2023-12-20T10:47:27;6.82;;;2.25;;
44476;SDS011;30180;44.788;10.366;2023-12-20T10:50:00;5.95;;;2.17;;
44476;SDS011;30180;44.788;10.366;2023-12-20T10:52:33;5.75;;;2.10;;
44476;SDS011;30180;44.788;10.366;2023-12-20T10:55:04;6.28;;;2.28;;
44476;SDS011;30180;44.788;10.366;2023-12-20T10:57:33;6.57;;;2.40;;
44476;SDS011;30180;44.788;10.366;2023-12-20T11:00:04;4.10;;;1.98;;
44476;SDS011;30180;44.788;10.366;2023-12-20T11:02:36;6.60;;;2.53;;
44476;SDS011;30180;44.788;10.366;2023-12-20T11:05:13;5.18;;;2.60;;
44476;SDS011;30180;44.788;10.366;2023-12-20T11:07:50;6.57;;;2.58;;
44476;SDS011;30180;44.788;10.366;2023-12-20T11:10:25;7.00;;;2.40;;
44476;SDS011;30180;44.788;10.366;2023-12-20T11:12:59;7.97;;;2.80;;
44476;SDS011;30180;44.788;10.366;2023-12-20T11:15:38;3.40;;;2.28;;
44476;SDS011;30180;44.788;10.366;2023-12-20T11:18:07;7.95;;;2.67;;
44476;SDS011;30180;44.788;10.366;2023-12-20T11:20:38;3.88;;;2.03;;
44476;SDS011;30180;44.788;10.366;2023-12-20T11:23:08;6.07;;;2.42;;
44476;SDS011;30180;44.788;10.366;2023-12-20T11:25:46;4.43;;;2.30;;
44476;SDS011;30180;44.788;10.366;2023-12-20T11:28:15;4.50;;;2.40;;
44476;SDS011;30180;44.788;10.366;2023-12-20T11:30:50;5.90;;;2.30;;
44476;SDS011;30180;44.788;10.366;2023-12-20T11:33:22;5.32;;;2.40;;
44476;SDS011;30180;44.788;10.366;2023-12-20T11:35:57;5.15;;;2.22;;
44476;SDS011;30180;44.788;10.366;2023-12-20T11:38:27;5.22;;;2.47;;
44476;SDS011;30180;44.788;10.366;2023-12-20T11:40:55;3.47;;;1.98;;
44476;SDS011;30180;44.788;10.366;2023-12-20T11:43:30;6.70;;;2.45;;
44476;SDS011;30180;44.788;10.366;2023-12-20T11:46:02;4.97;;;2.10;;
44476;SDS011;30180;44.788;10.366;2023-12-20T11:48:32;6.45;;;2.53;;
44476;SDS011;30180;44.788;10.366;2023-12-20T11:51:08;6.55;;;2.50;;
44476;SDS011;30180;44.788;10.366;2023-12-20T11:53:37;5.45;;;2.33;;
44476;SDS011;30180;44.788;10.366;2023-12-20T11:56:05;7.75;;;2.60;;
44476;SDS011;30180;44.788;10.366;2023-12-20T11:58:34;6.72;;;3.22;;
44476;SDS011;30180;44.788;10.366;2023-12-20T12:01:03;5.47;;;2.50;;
44476;SDS011;30180;44.788;10.366;2023-12-20T12:03:35;6.05;;;2.80;;
44476;SDS011;30180;44.788;10.366;2023-12-20T12:06:05;6.10;;;2.50;;
44476;SDS011;30180;44.788;10.366;2023-12-20T12:08:35;6.35;;;2.58;;
44476;SDS011;30180;44.788;10.366;2023-12-20T12:11:04;5.63;;;2.60;;
44476;SDS011;30180;44.788;10.366;2023-12-20T12:13:32;5.20;;;2.40;;
44476;SDS011;30180;44.788;10.366;2023-12-20T12:16:01;5.57;;;2.67;;
44476;SDS011;30180;44.788;10.366;2023-12-20T12:18:30;6.35;;;2.72;;
44476;SDS011;30180;44.788;10.366;2023-12-20T12:21:02;6.05;;;2.53;;
44476;SDS011;30180;44.788;10.366;2023-12-20T12:23:42;7.10;;;3.00;;
44476;SDS011;30180;44.788;10.366;2023-12-20T12:26:10;7.40;;;2.72;;
44476;SDS011;30180;44.788;10.366;2023-12-20T12:28:40;6.10;;;2.58;;
44476;SDS011;30180;44.788;10.366;2023-12-20T12:31:09;4.73;;;2.30;;
44476;SDS011;30180;44.788;10.366;2023-12-20T12:33:42;3.67;;;2.15;;
44476;SDS011;30180;44.788;10.366;2023-12-20T12:36:12;5.47;;;2.40;;
44476;SDS011;30180;44.788;10.366;2023-12-20T12:38:44;5.60;;;2.50;;
44476;SDS011;30180;44.788;10.366;2023-12-20T12:41:12;5.43;;;2.17;;
44476;SDS011;30180;44.788;10.366;2023-12-20T12:43:41;5.20;;;2.50;;
44476;SDS011;30180;44.788;10.366;2023-12-20T12:46:10;4.90;;;2.28;;
44476;SDS011;30180;44.788;10.366;2023-12-20T12:48:39;4.03;;;2.25;;
44476;SDS011;30180;44.788;10.366;2023-12-20T12:51:11;4.53;;;2.45;;
44476;SDS011;30180;44.788;10.366;2023-12-20T12:53:40;5.97;;;2.22;;
44476;SDS011;30180;44.788;10.366;2023-12-20T12:56:10;5.70;;;2.53;;
44476;SDS011;30180;44.788;10.366;2023-12-20T12:58:41;5.75;;;2.28;;
44476;SDS011;30180;44.788;10.366;2023-12-20T13:01:09;4.35;;;2.30;;
44476;SDS011;30180;44.788;10.366;2023-12-20T13:03:38;7.20;;;2.80;;
44476;SDS011;30180;44.788;10.366;2023-12-20T13:06:06;5.60;;;2.65;;
44476;SDS011;30180;44.788;10.366;2023-12-20T13:08:35;4.60;;;2.40;;
44476;SDS011;30180;44.788;10.366;2023-12-20T13:11:03;9.35;;;3.00;;
44476;SDS011;30180;44.788;10.366;2023-12-20T13:13:33;5.22;;;2.45;;
44476;SDS011;30180;44.788;10.366;2023-12-20T13:16:02;4.57;;;2.35;;
44476;SDS011;30180;44.788;10.366;2023-12-20T13:18:30;5.97;;;2.55;;
44476;SDS011;30180;44.788;10.366;2023-12-20T13:20:59;5.65;;;2.88;;
44476;SDS011;30180;44.788;10.366;2023-12-20T13:23:27;11.50;;;4.53;;
44476;SDS011;30180;44.788;10.366;2023-12-20T13:25:55;15.93;;;5.55;;
44476;SDS011;30180;44.788;10.366;2023-12-20T13:28:24;18.55;;;6.32;;
44476;SDS011;30180;44.788;10.366;2023-12-20T13:30:54;14.25;;;5.90;;
44476;SDS011;30180;44.788;10.366;2023-12-20T13:33:23;19.30;;;5.53;;
44476;SDS011;30180;44.788;10.366;2023-12-20T13:35:51;12.98;;;5.15;;
44476;SDS011;30180;44.788;10.366;2023-12-20T13:38:19;18.05;;;6.18;;
44476;SDS011;30180;44.788;10.366;2023-12-20T13:40:48;12.60;;;5.22;;
44476;SDS011;30180;44.788;10.366;2023-12-20T13:43:16;13.88;;;5.25;;
44476;SDS011;30180;44.788;10.366;2023-12-20T13:45:47;13.35;;;4.45;;
44476;SDS011;30180;44.788;10.366;2023-12-20T13:48:17;13.52;;;4.40;;
44476;SDS011;30180;44.788;10.366;2023-12-20T13:50:46;11.93;;;4.30;;
44476;SDS011;30180;44.788;10.366;2023-12-20T13:53:14;13.85;;;3.80;;
44476;SDS011;30180;44.788;10.366;2023-12-20T13:55:42;13.70;;;4.00;;
44476;SDS011;30180;44.788;10.366;2023-12-20T13:58:11;10.98;;;4.20;;
44476;SDS011;30180;44.788;10.366;2023-12-20T14:00:40;10.27;;;4.93;;
44476;SDS011;30180;44.788;10.366;2023-12-20T14:03:08;10.38;;;4.05;;
44476;SDS011;30180;44.788;10.366;2023-12-20T14:05:38;12.63;;;4.78;;
44476;SDS011;30180;44.788;10.366;2023-12-20T14:08:07;10.27;;;4.27;;
44476;SDS011;30180;44.788;10.366;2023-12-20T14:10:35;9.95;;;4.15;;
44476;SDS011;30180;44.788;10.366;2023-12-20T14:13:05;12.20;;;4.35;;
44476;SDS011;30180;44.788;10.366;2023-12-20T14:15:33;10.25;;;4.10;;
44476;SDS011;30180;44.788;10.366;2023-12-20T14:18:04;9.88;;;4.35;;
44476;SDS011;30180;44.788;10.366;2023-12-20T14:20:34;8.73;;;4.30;;
44476;SDS011;30180;44.788;10.366;2023-12-20T14:23:04;10.63;;;4.43;;
44476;SDS011;30180;44.788;10.366;2023-12-20T14:25:33;10.73;;;4.67;;
44476;SDS011;30180;44.788;10.366;2023-12-20T14:28:17;10.80;;;4.78;;
44476;SDS011;30180;44.788;10.366;2023-12-20T14:30:45;9.27;;;4.82;;
44476;SDS011;30180;44.788;10.366;2023-12-20T14:33:15;11.40;;;4.97;;
44476;SDS011;30180;44.788;10.366;2023-12-20T14:35:46;12.65;;;4.18;;
44476;SDS011;30180;44.788;10.366;2023-12-20T14:38:15;13.27;;;5.05;;
44476;SDS011;30180;44.788;10.366;2023-12-20T14:40:44;9.73;;;4.85;;
44476;SDS011;30180;44.788;10.366;2023-12-20T14:43:12;8.90;;;4.70;;
44476;SDS011;30180;44.788;10.366;2023-12-20T14:45:40;10.57;;;5.28;;
44476;SDS011;30180;44.788;10.366;2023-12-20T14:48:08;8.60;;;4.65;;
44476;SDS011;30180;44.788;10.366;2023-12-20T14:50:37;15.00;;;5.20;;
44476;SDS011;30180;44.788;10.366;2023-12-20T14:53:07;9.98;;;4.72;;
44476;SDS011;30180;44.788;10.366;2023-12-20T14:55:36;9.93;;;4.53;;
44476;SDS011;30180;44.788;10.366;2023-12-20T14:58:06;10.55;;;4.68;;